Time;durP1;ratioP1;P1;durP2;ratioP2;P2;SDS_P1;SDS_P2;PMS_P1;PMS_P2;Temp;Humidity;BMP_temperature;BMP_pressure;BME280_temperature;BME280_humidity;BME280_pressure;Samples;Min_cycle;Max_cycle;Signal;HPM_P1;HPM_P2
2021/06/11 00:01:10;;;;;;;6.27;5.67;;;16.20;99.90;;;;;;5017054;28;20177;-67
2021/06/11 00:03:36;;;;;;;5.43;4.53;;;16.10;99.90;;;;;;5033642;28;20169;-65
2021/06/11 00:06:02;;;;;;;9.57;4.97;;;16.10;99.90;;;;;;5033225;28;20300;-66
2021/06/11 00:08:29;;;;;;;6.60;5.47;;;16.10;99.90;;;;;;5033322;28;20243;-66
2021/06/11 00:10:55;;;;;;;6.43;5.17;;;16.10;99.90;;;;;;5033099;28;20424;-67
2021/06/11 00:13:21;;;;;;;5.43;4.80;;;16.10;99.90;;;;;;5033639;28;20435;-67
2021/06/11 00:15:49;;;;;;;5.63;4.80;;;16.10;99.90;;;;;;5033259;28;20235;-65
2021/06/11 00:18:14;;;;;;;6.33;5.13;;;16.10;99.90;;;;;;5032703;28;20428;-66
2021/06/11 00:20:40;;;;;;;6.50;5.90;;;16.10;99.90;;;;;;5033314;28;20478;-66
2021/06/11 00:23:06;;;;;;;6.70;6.00;;;16.10;99.90;;;;;;5033581;28;20215;-66
2021/06/11 00:25:32;;;;;;;5.97;5.00;;;16.10;99.90;;;;;;5033189;28;20661;-67
2021/06/11 00:28:01;;;;;;;7.03;5.60;;;16.20;99.90;;;;;;5032779;28;20173;-66
2021/06/11 00:30:29;;;;;;;8.97;5.40;;;16.20;99.90;;;;;;5025119;28;20820;-66
2021/06/11 00:32:55;;;;;;;8.50;6.50;;;16.10;99.90;;;;;;5033218;28;20427;-66
2021/06/11 00:35:21;;;;;;;7.03;5.43;;;16.10;99.90;;;;;;5032812;28;20412;-67
2021/06/11 00:37:47;;;;;;;6.30;5.00;;;16.10;99.90;;;;;;5032613;28;20481;-66
2021/06/11 00:40:13;;;;;;;8.03;6.83;;;16.10;99.90;;;;;;5032821;28;20205;-66
2021/06/11 00:42:39;;;;;;;6.07;5.47;;;16.10;99.90;;;;;;5015598;28;20423;-66
2021/06/11 00:45:07;;;;;;;7.00;5.70;;;16.10;99.90;;;;;;5033100;28;20444;-67
2021/06/11 00:47:32;;;;;;;8.27;6.27;;;16.10;99.90;;;;;;5032577;28;20193;-66
2021/06/11 00:49:58;;;;;;;8.97;5.87;;;16.10;99.90;;;;;;5032839;28;20443;-67
2021/06/11 00:52:24;;;;;;;7.40;6.70;;;16.10;99.90;;;;;;5032662;28;20208;-66
2021/06/11 00:54:50;;;;;;;11.30;6.37;;;16.00;99.90;;;;;;5033152;28;20180;-67
2021/06/11 00:57:16;;;;;;;7.50;5.27;;;16.00;99.90;;;;;;5036045;28;20576;-67
2021/06/11 00:59:43;;;;;;;10.47;5.90;;;15.90;99.90;;;;;;5036957;28;20212;-67
2021/06/11 01:02:10;;;;;;;6.70;5.43;;;15.90;99.90;;;;;;5037154;28;20498;-66
2021/06/11 01:04:36;;;;;;;6.70;5.93;;;15.90;99.90;;;;;;5036528;28;20514;-67
2021/06/11 01:07:03;;;;;;;11.40;6.47;;;15.80;99.90;;;;;;5036541;28;20439;-68
2021/06/11 01:09:30;;;;;;;8.20;5.80;;;15.80;99.90;;;;;;5036476;28;20272;-66
2021/06/11 01:11:57;;;;;;;6.37;5.77;;;15.80;99.90;;;;;;5036850;28;20415;-68
2021/06/11 01:14:22;;;;;;;8.53;6.67;;;15.70;99.90;;;;;;5036269;28;20755;-66
2021/06/11 01:16:48;;;;;;;9.40;5.17;;;15.70;99.90;;;;;;5036492;28;20401;-68
2021/06/11 01:19:14;;;;;;;8.40;5.33;;;15.70;99.90;;;;;;5036037;28;20490;-67
2021/06/11 01:21:51;;;;;;;7.20;5.60;;;15.70;99.90;;;;;;5036782;28;20181;-67
2021/06/11 01:24:21;;;;;;;6.20;5.47;;;15.70;99.90;;;;;;5036404;28;20416;-66
2021/06/11 01:26:49;;;;;;;9.20;5.87;;;15.80;99.90;;;;;;5036283;28;20516;-67
2021/06/11 01:29:20;;;;;;;7.50;6.53;;;15.70;99.90;;;;;;5035690;28;20551;-67
2021/06/11 01:31:50;;;;;;;7.00;6.00;;;15.70;99.90;;;;;;5036313;28;20400;-68
2021/06/11 01:34:21;;;;;;;7.60;5.47;;;15.60;99.90;;;;;;5036160;28;20427;-66
2021/06/11 01:36:50;;;;;;;7.80;5.63;;;15.60;99.90;;;;;;5028979;28;20959;-68
2021/06/11 01:39:19;;;;;;;6.90;5.40;;;15.70;99.90;;;;;;5035962;28;20433;-66
2021/06/11 01:41:46;;;;;;;8.53;6.47;;;15.70;99.90;;;;;;5035956;28;20934;-67
2021/06/11 01:44:13;;;;;;;6.80;5.40;;;15.60;99.90;;;;;;5036007;28;20401;-67
2021/06/11 01:46:41;;;;;;;8.27;5.77;;;15.60;99.90;;;;;;5035549;28;20440;-66
2021/06/11 01:49:07;;;;;;;9.60;5.90;;;15.60;99.90;;;;;;5035734;28;20515;-67
2021/06/11 01:51:36;;;;;;;7.00;5.67;;;15.60;99.90;;;;;;5035929;28;20409;-67
2021/06/11 01:54:04;;;;;;;7.50;4.73;;;15.50;99.90;;;;;;5035825;28;20921;-67
2021/06/11 01:56:31;;;;;;;8.07;6.40;;;15.40;99.90;;;;;;5035480;28;20906;-67
2021/06/11 01:58:57;;;;;;;7.97;5.37;;;15.40;99.90;;;;;;5035572;28;20434;-67
2021/06/11 02:01:23;;;;;;;7.43;5.07;;;15.30;99.90;;;;;;5034666;28;20431;-65
2021/06/11 02:03:51;;;;;;;12.83;7.20;;;15.30;99.90;;;;;;5035731;28;20407;-66
2021/06/11 02:06:20;;;;;;;7.97;6.30;;;15.30;99.90;;;;;;5034625;28;20493;-66
2021/06/11 02:08:50;;;;;;;9.07;7.50;;;15.30;99.90;;;;;;5034316;28;20443;-67
2021/06/11 02:11:17;;;;;;;8.37;6.67;;;15.30;99.90;;;;;;5035726;28;20415;-67
2021/06/11 02:13:45;;;;;;;10.73;7.00;;;15.30;99.90;;;;;;5035967;28;20396;-67
2021/06/11 02:16:12;;;;;;;7.83;5.97;;;15.20;99.90;;;;;;5034631;28;20474;-67
2021/06/11 02:18:39;;;;;;;10.10;6.60;;;15.20;99.90;;;;;;5035604;28;20858;-68
2021/06/11 02:21:06;;;;;;;7.90;6.20;;;15.10;99.90;;;;;;5035186;28;20782;-67
2021/06/11 02:23:34;;;;;;;9.80;6.10;;;15.10;99.90;;;;;;5035664;28;20415;-66
2021/06/11 02:26:04;;;;;;;7.13;6.23;;;15.00;99.90;;;;;;5034848;28;20458;-66
2021/06/11 02:28:30;;;;;;;7.53;5.50;;;15.00;99.90;;;;;;5035299;28;20481;-67
2021/06/11 02:30:59;;;;;;;7.40;6.33;;;14.90;99.90;;;;;;5034883;28;20471;-66
2021/06/11 02:33:26;;;;;;;7.13;5.63;;;14.80;99.90;;;;;;5035381;28;20411;-66
2021/06/11 02:35:53;;;;;;;8.10;6.13;;;14.80;99.90;;;;;;5034920;28;20872;-67
2021/06/11 02:38:18;;;;;;;9.93;6.37;;;14.80;99.90;;;;;;5034722;28;20415;-67
2021/06/11 02:40:44;;;;;;;7.17;5.93;;;14.80;99.90;;;;;;5035026;28;20415;-67
2021/06/11 02:43:14;;;;;;;6.10;5.33;;;14.70;99.90;;;;;;5034861;28;20655;-67
2021/06/11 02:45:48;;;;;;;6.53;5.23;;;14.60;99.90;;;;;;5034762;28;20196;-67
2021/06/11 02:48:51;;;;;;;6.07;5.37;;;14.50;99.90;;;;;;5034060;28;20469;-67
2021/06/11 02:51:30;;;;;;;7.27;5.50;;;14.50;99.90;;;;;;4974168;28;20973;-67
2021/06/11 02:53:57;;;;;;;13.67;6.90;;;14.50;99.90;;;;;;5027045;28;20425;-67
2021/06/11 02:56:27;;;;;;;7.20;5.40;;;14.50;99.90;;;;;;5034032;28;20434;-67
2021/06/11 02:59:01;;;;;;;9.50;6.70;;;14.40;99.90;;;;;;5034035;28;20433;-67
2021/06/11 03:01:28;;;;;;;9.57;6.17;;;14.40;99.90;;;;;;5034996;28;20400;-68
2021/06/11 03:03:57;;;;;;;7.87;6.00;;;14.50;99.90;;;;;;5034583;28;20413;-67
2021/06/11 03:06:24;;;;;;;9.07;6.70;;;14.50;99.90;;;;;;5033962;28;20469;-68
2021/06/11 03:08:51;;;;;;;11.20;7.50;;;14.60;99.90;;;;;;5034197;28;20445;-67
2021/06/11 03:11:29;;;;;;;9.47;7.13;;;14.60;99.90;;;;;;5034454;28;20503;-67
2021/06/11 03:13:57;;;;;;;12.13;6.50;;;14.50;99.90;;;;;;5034334;28;20575;-67
2021/06/11 03:16:27;;;;;;;10.97;6.70;;;14.50;99.90;;;;;;5034201;28;20446;-67
2021/06/11 03:18:59;;;;;;;10.33;6.80;;;14.50;99.90;;;;;;5033728;28;20447;-68
2021/06/11 03:21:31;;;;;;;7.67;6.70;;;14.50;99.90;;;;;;5026001;28;20813;-68
2021/06/11 03:24:18;;;;;;;10.20;6.70;;;14.40;99.90;;;;;;5034148;28;20987;-68
2021/06/11 03:26:51;;;;;;;9.10;6.37;;;14.40;99.90;;;;;;5033882;28;20455;-68
2021/06/11 03:29:21;;;;;;;11.00;7.33;;;14.40;99.90;;;;;;5033867;28;20841;-65
2021/06/11 03:31:52;;;;;;;10.03;5.80;;;14.40;99.90;;;;;;5033918;28;20423;-68
2021/06/11 03:34:24;;;;;;;10.67;6.93;;;14.40;99.90;;;;;;5033937;28;20490;-67
2021/06/11 03:36:52;;;;;;;8.70;7.37;;;14.40;99.90;;;;;;5033898;28;20821;-67
2021/06/11 03:39:35;;;;;;;8.37;6.20;;;14.40;99.90;;;;;;5033779;28;20454;-67
2021/06/11 03:42:04;;;;;;;10.87;6.50;;;14.40;99.90;;;;;;5033721;28;20477;-67
2021/06/11 03:44:31;;;;;;;9.27;6.63;;;14.40;99.90;;;;;;5033418;28;20429;-67
2021/06/11 03:46:58;;;;;;;9.87;6.07;;;14.40;99.90;;;;;;5033785;28;20494;-67
2021/06/11 03:49:25;;;;;;;8.23;5.63;;;14.40;99.90;;;;;;5033698;28;20435;-66
2021/06/11 03:51:53;;;;;;;8.83;4.80;;;14.40;99.90;;;;;;5033483;28;20795;-67
2021/06/11 03:54:20;;;;;;;8.70;5.20;;;14.40;99.90;;;;;;5033309;28;20420;-66
2021/06/11 03:56:48;;;;;;;10.10;5.80;;;14.40;99.90;;;;;;5033528;28;20781;-66
2021/06/11 03:59:15;;;;;;;9.27;5.90;;;14.50;99.90;;;;;;5033481;28;20459;-66
2021/06/11 04:01:45;;;;;;;7.67;6.47;;;14.50;99.90;;;;;;5033106;28;20510;-68
2021/06/11 04:04:11;;;;;;;7.90;6.50;;;14.60;99.90;;;;;;5034013;28;20365;-65
2021/06/11 04:06:41;;;;;;;7.93;6.77;;;14.60;99.90;;;;;;5032903;28;20516;-68
2021/06/11 04:09:09;;;;;;;7.30;5.83;;;14.60;99.90;;;;;;5033597;28;20546;-66
2021/06/11 04:11:47;;;;;;;9.60;6.70;;;14.70;99.90;;;;;;5032964;28;20408;-67
2021/06/11 04:14:22;;;;;;;9.63;5.93;;;14.80;99.90;;;;;;5033117;28;20446;-66
2021/06/11 04:16:50;;;;;;;8.37;5.93;;;14.80;99.90;;;;;;5033035;28;20466;-67
2021/06/11 04:19:22;;;;;;;7.73;6.67;;;14.90;99.90;;;;;;5033247;28;20432;-66
2021/06/11 04:21:50;;;;;;;9.00;6.47;;;15.00;99.90;;;;;;5033029;28;20574;-68
2021/06/11 04:24:21;;;;;;;10.83;6.97;;;15.20;99.90;;;;;;5033354;28;20460;-66
2021/06/11 04:26:48;;;;;;;12.03;6.50;;;15.40;99.90;;;;;;5032829;28;20513;-67
2021/06/11 04:29:17;;;;;;;10.13;6.10;;;15.60;99.90;;;;;;5033336;28;20461;-67
2021/06/11 04:31:43;;;;;;;9.80;5.93;;;15.80;99.90;;;;;;5032249;28;20425;-67
2021/06/11 04:34:16;;;;;;;9.67;6.00;;;15.90;99.90;;;;;;5015654;28;20428;-66
2021/06/11 04:36:43;;;;;;;6.93;5.63;;;16.00;99.90;;;;;;5032544;28;20783;-67
2021/06/11 04:39:09;;;;;;;7.13;5.40;;;16.20;99.90;;;;;;5030783;28;20470;-66
2021/06/11 04:41:35;;;;;;;6.97;5.10;;;16.40;99.90;;;;;;5032855;28;20453;-68
2021/06/11 04:44:03;;;;;;;7.97;5.90;;;16.40;99.90;;;;;;5033274;28;20165;-65
2021/06/11 04:46:29;;;;;;;6.50;4.87;;;16.50;99.90;;;;;;5032535;28;20464;-68
2021/06/11 04:48:54;;;;;;;6.77;5.60;;;16.40;99.90;;;;;;5032710;28;20451;-67
2021/06/11 04:51:20;;;;;;;6.87;5.30;;;16.50;99.90;;;;;;5032491;28;20177;-67
2021/06/11 04:53:46;;;;;;;5.50;4.80;;;16.50;99.90;;;;;;5033024;28;20919;-67
2021/06/11 04:56:12;;;;;;;6.20;5.13;;;16.60;99.90;;;;;;5032258;28;20515;-66
2021/06/11 04:58:40;;;;;;;5.40;4.33;;;16.70;99.90;;;;;;5033147;28;20190;-66
2021/06/11 05:01:06;;;;;;;6.90;5.00;;;16.60;99.90;;;;;;5032599;28;20431;-67
2021/06/11 05:03:33;;;;;;;5.30;4.40;;;16.60;99.90;;;;;;5032919;28;20409;-67
2021/06/11 05:06:00;;;;;;;8.03;5.70;;;16.50;99.90;;;;;;5032434;28;20911;-65
2021/06/11 05:08:26;;;;;;;7.00;5.03;;;16.70;99.90;;;;;;5032472;28;20405;-68
2021/06/11 05:10:53;;;;;;;6.83;5.60;;;16.60;99.90;;;;;;5032323;28;20420;-64
2021/06/11 05:13:19;;;;;;;6.50;5.10;;;16.70;99.90;;;;;;5032759;28;20251;-67
2021/06/11 05:15:44;;;;;;;6.07;5.13;;;16.80;99.90;;;;;;5031927;28;20464;-65
2021/06/11 05:18:10;;;;;;;7.70;5.50;;;17.00;99.90;;;;;;5032171;28;20636;-67
2021/06/11 05:20:39;;;;;;;6.40;5.33;;;17.00;99.90;;;;;;5032348;28;20588;-65
2021/06/11 05:23:06;;;;;;;6.77;6.17;;;17.10;99.90;;;;;;5032878;28;20191;-68
2021/06/11 05:25:32;;;;;;;5.23;4.73;;;17.20;99.90;;;;;;5032051;28;20454;-67
2021/06/11 05:27:58;;;;;;;5.53;4.80;;;17.30;99.90;;;;;;5032466;28;20419;-66
2021/06/11 05:30:25;;;;;;;7.30;4.83;;;17.50;99.90;;;;;;5031926;28;20221;-67
2021/06/11 05:32:52;;;;;;;8.00;4.70;;;17.70;99.90;;;;;;5032437;28;20432;-67
2021/06/11 05:35:18;;;;;;;5.60;4.40;;;18.00;99.90;;;;;;5032448;28;20460;-64
2021/06/11 05:37:44;;;;;;;5.63;4.47;;;18.20;99.90;;;;;;5031903;28;20422;-69
2021/06/11 05:40:10;;;;;;;7.27;5.33;;;18.40;99.90;;;;;;5032154;28;20454;-69
2021/06/11 05:42:36;;;;;;;5.17;4.37;;;18.60;99.90;;;;;;5034946;28;20245;-67
2021/06/11 05:45:02;;;;;;;7.87;4.80;;;18.80;99.90;;;;;;5035861;28;20866;-68
2021/06/11 05:47:28;;;;;;;4.77;4.20;;;19.10;99.90;;;;;;5035039;28;20170;-66
2021/06/11 05:49:54;;;;;;;10.50;5.20;;;19.10;99.90;;;;;;5035787;28;20990;-67
2021/06/11 05:52:19;;;;;;;5.30;4.80;;;19.40;99.90;;;;;;5035776;28;20639;-66
2021/06/11 05:54:45;;;;;;;6.20;4.73;;;19.70;99.90;;;;;;5036012;28;20265;-68
2021/06/11 05:57:11;;;;;;;5.30;4.20;;;19.90;99.90;;;;;;5034989;28;20200;-64
2021/06/11 05:59:36;;;;;;;5.40;4.73;;;20.20;99.90;;;;;;5035688;28;20671;-67
2021/06/11 06:02:03;;;;;;;4.27;3.90;;;20.30;99.90;;;;;;5035544;28;20193;-65
2021/06/11 06:04:29;;;;;;;4.87;4.40;;;20.50;99.90;;;;;;5035736;28;20525;-67
2021/06/11 06:06:57;;;;;;;5.60;4.97;;;20.60;99.90;;;;;;5034754;28;20416;-64
2021/06/11 06:09:23;;;;;;;4.70;4.10;;;20.70;99.90;;;;;;5035581;28;20425;-65
2021/06/11 06:11:49;;;;;;;4.47;4.03;;;20.80;99.90;;;;;;5035257;28;20431;-66
2021/06/11 06:14:14;;;;;;;5.70;4.80;;;20.70;99.90;;;;;;5038007;28;20174;-66
2021/06/11 06:16:40;;;;;;;5.30;4.73;;;20.80;99.90;;;;;;5050025;28;20639;-65
2021/06/11 06:19:06;;;;;;;5.07;4.57;;;20.70;99.90;;;;;;5055329;28;20204;-67
2021/06/11 06:21:32;;;;;;;5.43;4.57;;;20.60;99.90;;;;;;5055295;28;20181;-66
2021/06/11 06:23:59;;;;;;;6.20;5.03;;;20.70;99.90;;;;;;5035801;28;20174;-67
2021/06/11 06:26:25;;;;;;;5.27;4.77;;;20.80;99.90;;;;;;5045878;28;20434;-67
2021/06/11 06:28:51;;;;;;;6.00;4.57;;;20.80;99.90;;;;;;5035029;28;20507;-67
2021/06/11 06:31:17;;;;;;;5.07;4.23;;;21.00;99.90;;;;;;5037929;28;20902;-67
2021/06/11 06:33:42;;;;;;;4.37;3.97;;;21.10;99.90;;;;;;5035287;28;20174;-67
2021/06/11 06:36:09;;;;;;;6.67;5.13;;;21.20;99.90;;;;;;5034587;28;20220;-66
2021/06/11 06:38:35;;;;;;;4.73;4.33;;;21.30;99.90;;;;;;5034999;28;20203;-70
2021/06/11 06:41:02;;;;;;;5.00;4.50;;;21.30;99.90;;;;;;5035266;28;20512;-68
2021/06/11 06:43:29;;;;;;;5.13;4.70;;;21.10;99.90;;;;;;5034894;28;20560;-68
2021/06/11 06:45:55;;;;;;;5.43;4.33;;;21.00;99.90;;;;;;5019148;28;20464;-66
2021/06/11 06:48:21;;;;;;;5.73;4.90;;;21.10;99.90;;;;;;5034717;28;20422;-65
2021/06/11 06:50:46;;;;;;;8.13;4.50;;;21.10;99.90;;;;;;5035125;28;20409;-66
2021/06/11 06:53:12;;;;;;;4.40;4.00;;;21.30;99.90;;;;;;5034381;28;20320;-65
2021/06/11 06:55:38;;;;;;;5.60;5.10;;;21.60;99.90;;;;;;5037912;28;20177;-63
2021/06/11 06:58:04;;;;;;;6.17;5.53;;;21.80;99.90;;;;;;5043680;28;20174;-65
2021/06/11 07:00:30;;;;;;;5.53;4.80;;;21.90;99.90;;;;;;5045087;28;20427;-65
2021/06/11 07:02:56;;;;;;;4.80;4.40;;;22.00;99.90;;;;;;5031235;28;20478;-65
2021/06/11 07:05:22;;;;;;;5.23;4.23;;;22.20;99.90;;;;;;5045291;28;20203;-65
2021/06/11 07:07:47;;;;;;;4.70;4.30;;;22.50;99.90;;;;;;5042859;28;20641;-65
2021/06/11 07:10:13;;;;;;;5.30;3.77;;;22.80;99.90;;;;;;5034644;28;20186;-66
2021/06/11 07:12:39;;;;;;;5.80;5.30;;;22.90;99.90;;;;;;5034024;28;20198;-65
2021/06/11 07:15:07;;;;;;;4.20;3.80;;;23.20;99.90;;;;;;5034678;28;20201;-65
2021/06/11 07:17:33;;;;;;;5.43;4.73;;;23.30;99.90;;;;;;5034081;28;20467;-66
2021/06/11 07:19:59;;;;;;;5.30;4.70;;;23.60;99.90;;;;;;5034614;28;20848;-65
2021/06/11 07:22:24;;;;;;;4.63;4.23;;;23.50;99.90;;;;;;5034087;28;20182;-65
2021/06/11 07:24:50;;;;;;;5.10;4.47;;;23.60;99.90;;;;;;5034316;28;20263;-66
2021/06/11 07:27:16;;;;;;;4.70;4.30;;;23.80;99.90;;;;;;5033601;28;20213;-66
2021/06/11 07:29:44;;;;;;;4.87;4.47;;;24.00;99.90;;;;;;5034334;28;20214;-67
2021/06/11 07:32:11;;;;;;;4.70;3.90;;;24.30;99.90;;;;;;5034038;28;20176;-67
2021/06/11 07:34:38;;;;;;;6.27;5.67;;;24.80;99.90;;;;;;5034153;28;20384;-68
2021/06/11 07:37:04;;;;;;;4.57;4.17;;;25.50;99.90;;;;;;5033000;28;20506;-67
2021/06/11 07:39:30;;;;;;;4.77;4.37;;;26.60;99.90;;;;;;5033612;28;20415;-68
2021/06/11 07:41:55;;;;;;;5.03;4.63;;;27.90;99.40;;;;;;5033842;28;20478;-67
2021/06/11 07:44:22;;;;;;;5.67;5.10;;;29.20;94.90;;;;;;5033973;28;20260;-67
2021/06/11 07:46:48;;;;;;;8.37;5.27;;;30.20;93.90;;;;;;5033100;28;20233;-67
2021/06/11 07:49:14;;;;;;;5.10;4.70;;;31.20;91.90;;;;;;5033840;28;20407;-66
2021/06/11 07:51:40;;;;;;;5.00;4.70;;;32.10;89.70;;;;;;5033560;28;20185;-67
2021/06/11 07:54:07;;;;;;;3.67;3.47;;;33.10;85.10;;;;;;5033549;28;20483;-66
2021/06/11 07:56:39;;;;;;;4.40;4.10;;;33.60;81.80;;;;;;5033384;28;20437;-67
2021/06/11 07:59:05;;;;;;;5.23;4.83;;;34.00;79.30;;;;;;5033842;28;20441;-67
2021/06/11 08:01:34;;;;;;;5.30;4.90;;;34.60;76.40;;;;;;5032228;28;20848;-65
2021/06/11 08:04:01;;;;;;;5.17;4.77;;;34.90;74.20;;;;;;5032907;28;20421;-64
2021/06/11 08:06:27;;;;;;;4.80;4.40;;;35.30;73.30;;;;;;5032317;28;20463;-65
2021/06/11 08:08:52;;;;;;;8.70;5.07;;;35.80;71.90;;;;;;5033596;28;20809;-65
2021/06/11 08:11:18;;;;;;;5.90;5.50;;;36.10;68.70;;;;;;5033578;28;20178;-65
2021/06/11 08:13:44;;;;;;;5.43;4.97;;;36.10;66.20;;;;;;5033208;28;20664;-65
2021/06/11 08:16:09;;;;;;;5.97;5.47;;;36.10;66.40;;;;;;5033134;28;20182;-65
2021/06/11 08:18:35;;;;;;;5.50;5.10;;;36.00;65.10;;;;;;5033576;28;20217;-68
2021/06/11 08:21:01;;;;;;;4.47;4.17;;;35.90;65.40;;;;;;5033645;28;20357;-66
2021/06/11 08:23:26;;;;;;;4.80;4.50;;;36.00;65.30;;;;;;5033084;28;20184;-67
2021/06/11 08:25:52;;;;;;;5.83;5.43;;;36.60;62.90;;;;;;5033249;28;20193;-64
2021/06/11 08:28:18;;;;;;;5.47;5.07;;;37.20;61.10;;;;;;5033100;28;20175;-66
2021/06/11 08:30:44;;;;;;;5.77;5.37;;;37.30;59.20;;;;;;5033349;28;20660;-66
2021/06/11 08:33:09;;;;;;;4.80;4.40;;;37.10;60.50;;;;;;5033073;28;20217;-67
2021/06/11 08:35:35;;;;;;;4.87;4.47;;;37.20;60.40;;;;;;5032174;28;20185;-65
2021/06/11 08:38:01;;;;;;;5.20;4.80;;;37.30;59.40;;;;;;5032922;28;20189;-67
2021/06/11 08:40:27;;;;;;;5.47;5.07;;;37.20;58.50;;;;;;5033223;28;20342;-68
2021/06/11 08:42:53;;;;;;;5.60;5.23;;;36.60;59.20;;;;;;5033078;28;20181;-65
2021/06/11 08:45:20;;;;;;;5.53;5.03;;;37.00;58.80;;;;;;5032596;28;20510;-65
2021/06/11 08:47:51;;;;;;;5.77;5.37;;;37.30;57.30;;;;;;5032612;28;20417;-66
2021/06/11 08:50:23;;;;;;;5.03;4.73;;;37.40;57.80;;;;;;5032994;28;20427;-65
2021/06/11 08:52:49;;;;;;;4.97;4.67;;;37.40;57.00;;;;;;5033022;28;20416;-65
2021/06/11 08:55:16;;;;;;;5.23;4.93;;;37.60;57.50;;;;;;5032812;28;20405;-66
2021/06/11 08:57:42;;;;;;;5.20;4.73;;;37.60;55.90;;;;;;5032675;28;20409;-64
2021/06/11 09:00:10;;;;;;;6.20;5.80;;;37.90;56.00;;;;;;5032261;28;20799;-65
2021/06/11 09:03:08;;;;;;;5.60;5.20;;;38.10;55.30;;;;;;5032277;28;20413;-63
2021/06/11 09:05:34;;;;;;;4.50;4.20;;;38.00;54.70;;;;;;5032563;28;20521;-64
2021/06/11 09:08:15;;;;;;;5.70;5.30;;;38.00;55.10;;;;;;5032702;28;20459;-65
2021/06/11 09:10:43;;;;;;;5.13;4.83;;;38.30;53.80;;;;;;5032926;28;20809;-67
2021/06/11 09:13:09;;;;;;;4.70;4.40;;;38.00;54.20;;;;;;5033047;28;20756;-66
2021/06/11 09:15:34;;;;;;;5.33;5.03;;;37.90;54.50;;;;;;5032357;28;20460;-65
2021/06/11 09:18:00;;;;;;;5.70;5.20;;;37.90;53.80;;;;;;5017952;28;20166;-66
2021/06/11 09:20:41;;;;;;;5.40;5.10;;;37.80;53.70;;;;;;5036515;28;20197;-65
2021/06/11 09:23:08;;;;;;;6.77;6.27;;;37.70;54.60;;;;;;5036829;28;20178;-67
2021/06/11 09:25:42;;;;;;;4.57;4.27;;;37.90;54.50;;;;;;5036145;28;20417;-65
2021/06/11 09:28:14;;;;;;;4.83;4.40;;;38.60;52.50;;;;;;5034758;28;20421;-67
2021/06/11 09:30:39;;;;;;;4.90;4.60;;;38.60;52.80;;;;;;5036433;28;20579;-66
2021/06/11 09:33:07;;;;;;;5.60;5.20;;;39.00;51.40;;;;;;5036386;28;20496;-67
2021/06/11 09:35:38;;;;;;;6.10;5.70;;;39.20;52.00;;;;;;5035809;28;20205;-68
2021/06/11 09:38:11;;;;;;;5.80;5.37;;;39.30;52.30;;;;;;5036437;28;20405;-69
2021/06/11 09:40:37;;;;;;;5.60;5.30;;;39.10;51.10;;;;;;5036285;28;20413;-69
2021/06/11 09:43:04;;;;;;;5.13;4.73;;;38.70;50.60;;;;;;5036285;28;20499;-69
2021/06/11 09:45:30;;;;;;;5.83;5.43;;;38.60;51.00;;;;;;5024570;28;20417;-69
2021/06/11 09:47:56;;;;;;;5.37;5.00;;;38.70;50.90;;;;;;5035533;28;20420;-68
2021/06/11 09:50:29;;;;;;;5.07;4.67;;;39.00;50.40;;;;;;5035978;28;20429;-69
2021/06/11 09:53:09;;;;;;;5.27;4.97;;;38.90;49.80;;;;;;5035479;28;20416;-70
2021/06/11 09:55:42;;;;;;;4.40;4.10;;;39.30;49.00;;;;;;5034856;28;20452;-69
2021/06/11 09:58:21;;;;;;;5.43;5.13;;;40.00;48.40;;;;;;5017659;28;20929;-67
2021/06/11 10:00:59;;;;;;;5.20;4.90;;;40.40;47.10;;;;;;5035855;28;20375;-68
2021/06/11 10:03:29;;;;;;;4.90;4.60;;;40.60;45.90;;;;;;5035870;28;20899;-68
2021/06/11 10:06:00;;;;;;;5.73;5.33;;;41.10;44.50;;;;;;5034884;28;20515;-69
2021/06/11 10:08:27;;;;;;;5.17;4.87;;;40.70;43.40;;;;;;5035123;28;20412;-68
2021/06/11 10:10:56;;;;;;;5.37;4.97;;;40.60;44.20;;;;;;5035575;28;20410;-67
2021/06/11 10:13:22;;;;;;;5.30;4.90;;;40.00;44.50;;;;;;5035649;28;20412;-68
2021/06/11 10:15:51;;;;;;;5.80;5.40;;;39.00;44.60;;;;;;5035227;28;20488;-67
2021/06/11 10:18:17;;;;;;;5.50;5.20;;;38.90;44.60;;;;;;5035113;28;20401;-67
2021/06/11 10:20:44;;;;;;;5.37;5.07;;;38.60;43.70;;;;;;5035579;28;20458;-67
2021/06/11 10:23:13;;;;;;;4.60;4.30;;;38.70;43.60;;;;;;5035503;28;20417;-67
2021/06/11 10:25:46;;;;;;;4.77;4.47;;;38.30;42.20;;;;;;5035080;28;20399;-68
2021/06/11 10:28:16;;;;;;;4.50;4.20;;;37.70;45.60;;;;;;5033987;28;20762;-67
2021/06/11 10:30:42;;;;;;;4.20;3.97;;;37.80;43.70;;;;;;5035084;28;20421;-68
2021/06/11 10:33:07;;;;;;;4.57;4.27;;;37.80;45.20;;;;;;5035479;28;20918;-67
2021/06/11 10:35:40;;;;;;;4.70;4.30;;;37.60;44.20;;;;;;5034759;28;20277;-68
2021/06/11 10:38:10;;;;;;;4.70;4.40;;;37.30;44.30;;;;;;5034791;28;20666;-68
2021/06/11 10:40:39;;;;;;;4.80;4.50;;;37.20;44.90;;;;;;5034000;28;20402;-69
2021/06/11 10:43:29;;;;;;;5.47;5.17;;;37.30;45.70;;;;;;5035205;28;20409;-68
2021/06/11 10:45:58;;;;;;;5.23;4.83;;;37.30;46.20;;;;;;5034900;28;20449;-68
2021/06/11 10:48:25;;;;;;;4.93;4.63;;;35.90;51.40;;;;;;5034690;28;20420;-68
2021/06/11 10:50:51;;;;;;;4.97;4.63;;;36.20;49.50;;;;;;5017312;28;20423;-68
2021/06/11 10:53:36;;;;;;;4.90;4.60;;;36.20;49.60;;;;;;5034718;28;20462;-67
2021/06/11 10:56:18;;;;;;;6.03;5.53;;;36.40;49.90;;;;;;5031752;28;20460;-67
2021/06/11 10:58:45;;;;;;;6.00;5.50;;;35.90;48.10;;;;;;5034592;28;20436;-68
2021/06/11 11:01:26;;;;;;;4.27;4.07;;;35.60;49.00;;;;;;5034910;28;20416;-68
2021/06/11 11:03:53;;;;;;;5.27;4.83;;;35.70;50.30;;;;;;5034493;28;20736;-69
2021/06/11 11:06:30;;;;;;;5.13;4.73;;;35.90;47.50;;;;;;5016538;28;20962;-68
2021/06/11 11:08:59;;;;;;;5.30;5.00;;;36.10;48.60;;;;;;5034707;28;20424;-67
2021/06/11 11:11:33;;;;;;;4.90;4.60;;;35.90;46.30;;;;;;5034381;28;20412;-67
2021/06/11 11:14:00;;;;;;;5.67;5.27;;;35.70;47.50;;;;;;5033965;28;20411;-69
2021/06/11 11:16:28;;;;;;;7.27;5.63;;;35.10;50.00;;;;;;5033932;28;20547;-68
2021/06/11 11:18:54;;;;;;;5.10;4.73;;;34.50;47.60;;;;;;5032964;28;20407;-68
2021/06/11 11:21:21;;;;;;;5.77;5.27;;;33.70;49.40;;;;;;5034417;28;20383;-68
2021/06/11 11:23:55;;;;;;;5.77;5.27;;;33.00;51.00;;;;;;5034269;28;20376;-72
2021/06/11 11:26:38;;;;;;;4.70;4.40;;;32.50;53.40;;;;;;5020209;28;20420;-66
2021/06/11 11:29:03;;;;;;;5.23;4.83;;;32.30;53.90;;;;;;5049461;28;20412;-68
2021/06/11 11:31:29;;;;;;;5.57;5.17;;;32.10;54.30;;;;;;5016642;28;20394;-67
2021/06/11 11:33:55;;;;;;;5.00;4.60;;;31.70;54.50;;;;;;5034150;28;20247;-68
2021/06/11 11:36:23;;;;;;;5.50;5.00;;;31.20;54.30;;;;;;5033453;28;20460;-67
2021/06/11 11:38:48;;;;;;;5.17;4.77;;;30.90;54.40;;;;;;5016123;28;20407;-67
2021/06/11 11:41:14;;;;;;;5.50;5.00;;;30.50;52.00;;;;;;5016183;28;20409;-69
2021/06/11 11:43:40;;;;;;;14.00;5.30;;;30.10;55.00;;;;;;5033890;28;20262;-68
2021/06/11 11:46:05;;;;;;;5.90;5.40;;;29.80;56.60;;;;;;5015871;28;20178;-69
2021/06/11 11:48:31;;;;;;;6.47;5.87;;;29.60;54.60;;;;;;5033750;28;20303;-69
2021/06/11 11:50:56;;;;;;;5.27;4.77;;;29.50;55.10;;;;;;5033537;28;20229;-68
2021/06/11 11:53:24;;;;;;;5.90;5.43;;;29.20;56.40;;;;;;5033884;28;20171;-69
2021/06/11 11:55:50;;;;;;;5.07;4.67;;;29.00;56.60;;;;;;5033630;28;20265;-70
2021/06/11 11:58:16;;;;;;;4.80;4.40;;;28.80;55.70;;;;;;5031923;28;20412;-69
2021/06/11 12:00:42;;;;;;;5.70;5.20;;;28.90;56.10;;;;;;5032788;28;20454;-69
2021/06/11 12:03:07;;;;;;;5.70;5.20;;;28.80;57.80;;;;;;5033184;28;20399;-68
2021/06/11 12:05:33;;;;;;;5.77;5.27;;;28.80;57.70;;;;;;5033653;28;20178;-69
2021/06/11 12:07:59;;;;;;;5.20;4.80;;;28.80;57.30;;;;;;5015427;28;20178;-71
2021/06/11 12:10:26;;;;;;;5.10;4.60;;;28.90;59.60;;;;;;5033058;28;20198;-70
2021/06/11 12:12:53;;;;;;;4.93;4.53;;;29.20;58.40;;;;;;5033415;28;20171;-73
2021/06/11 12:15:19;;;;;;;5.90;5.40;;;29.50;57.70;;;;;;5032160;28;20448;-69
2021/06/11 12:17:44;;;;;;;5.73;4.20;;;29.80;58.40;;;;;;5032659;28;20398;-68
2021/06/11 12:20:11;;;;;;;4.53;4.20;;;30.00;56.30;;;;;;5033024;28;20429;-71
2021/06/11 12:22:37;;;;;;;3.20;3.00;;;30.20;54.60;;;;;;5033464;28;20280;-68
2021/06/11 12:25:03;;;;;;;3.17;2.97;;;30.20;51.80;;;;;;5033002;28;20409;-68
2021/06/11 12:27:29;;;;;;;4.10;3.70;;;30.20;50.00;;;;;;5032651;28;20404;-68
2021/06/11 12:29:54;;;;;;;2.87;2.67;;;30.10;46.70;;;;;;5032518;28;20457;-68
2021/06/11 12:32:20;;;;;;;3.77;3.47;;;30.00;47.00;;;;;;5033141;28;20185;-69
2021/06/11 12:34:46;;;;;;;3.50;3.30;;;30.00;48.90;;;;;;5033063;28;20166;-68
2021/06/11 12:37:11;;;;;;;3.30;3.10;;;30.00;49.70;;;;;;5032363;28;20175;-69
2021/06/11 12:39:37;;;;;;;3.53;3.30;;;29.90;49.60;;;;;;5032853;28;20189;-70
2021/06/11 12:42:16;;;;;;;3.60;3.30;;;29.70;48.70;;;;;;5032507;28;20644;-70
2021/06/11 12:44:43;;;;;;;4.10;3.80;;;29.60;48.60;;;;;;5014010;28;20228;-69
2021/06/11 12:47:10;;;;;;;4.20;3.90;;;29.50;49.40;;;;;;5032640;28;20488;-70
2021/06/11 12:49:36;;;;;;;4.27;3.97;;;29.40;49.40;;;;;;5032629;28;20436;-71